Time;durP1;ratioP1;P1;durP2;ratioP2;P2;SDS_P1;SDS_P2;PMS_P1;PMS_P2;Temp;Humidity;BMP_temperature;BMP_pressure;BME280_temperature;BME280_humidity;BME280_pressure;Samples;Min_cycle;Max_cycle;Signal;HPM_P1;HPM_P2
2022/04/10 00:01:19;;;;;;;20.55;4.93;;;;;;;13.02;50.81;101668.81;5059678;28;20048;-50
2022/04/10 00:03:44;;;;;;;25.35;6.35;;;;;;;13.51;49.11;101663.69;5067712;28;20041;-53
2022/04/10 00:06:10;;;;;;;28.63;7.90;;;;;;;13.42;49.64;101667.53;5054940;28;20036;-50
2022/04/10 00:08:35;;;;;;;25.57;6.60;;;;;;;13.53;48.91;101669.69;5060067;28;20033;-51
2022/04/10 00:11:01;;;;;;;27.40;7.20;;;;;;;13.38;49.28;101666.22;5048989;28;20045;-52
2022/04/10 00:13:27;;;;;;;22.63;7.22;;;;;;;13.11;49.84;101682.94;5070841;28;20033;-51
2022/04/10 00:15:52;;;;;;;23.73;6.10;;;;;;;13.20;49.83;101672.91;5047765;28;20048;-51
2022/04/10 00:18:18;;;;;;;15.27;4.90;;;;;;;13.02;50.60;101668.81;5065990;28;20033;-48
2022/04/10 00:20:45;;;;;;;13.30;4.25;;;;;;;12.82;50.82;101667.78;5067661;28;20033;-49
2022/04/10 00:23:11;;;;;;;21.27;4.82;;;;;;;13.11;50.00;101663.28;5063630;28;20046;-53
2022/04/10 00:25:37;;;;;;;16.20;3.77;;;;;;;12.61;51.11;101661.34;5065472;28;20026;-56
2022/04/10 00:28:03;;;;;;;20.90;4.63;;;;;;;12.54;51.78;101666.63;5069009;28;20029;-49
2022/04/10 00:30:32;;;;;;;24.35;7.13;;;;;;;12.75;51.22;101662.31;5055082;28;20047;-51
2022/04/10 00:32:57;;;;;;;28.88;6.57;;;;;;;12.77;50.80;101662.97;5065937;28;20093;-50
2022/04/10 00:35:23;;;;;;;22.23;6.75;;;;;;;13.04;50.27;101660.56;5074053;28;20037;-50
2022/04/10 00:37:49;;;;;;;34.50;6.63;;;;;;;12.71;51.08;101655.69;5066967;28;20041;-52
2022/04/10 00:40:14;;;;;;;22.30;7.33;;;;;;;12.52;51.40;101655.25;5069442;28;20021;-51
2022/04/10 00:42:45;;;;;;;27.97;8.53;;;;;;;12.50;51.48;101659.97;5057676;28;20037;-52
2022/04/10 00:45:11;;;;;;;20.35;5.88;;;;;;;12.57;51.54;101655.53;5051946;28;20084;-52
2022/04/10 00:47:36;;;;;;;24.00;6.70;;;;;;;12.67;50.83;101659.75;5053951;28;20126;-54
2022/04/10 00:50:07;;;;;;;33.10;10.52;;;;;;;12.21;52.41;101655.47;5057324;28;20036;-49
2022/04/10 00:52:34;;;;;;;37.13;9.43;;;;;;;12.21;52.87;101656.31;5047053;28;20037;-51
2022/04/10 00:55:00;;;;;;;25.80;7.90;;;;;;;12.09;53.20;101653.28;5057175;28;20052;-50
2022/04/10 00:57:26;;;;;;;31.50;8.50;;;;;;;11.62;54.99;101649.88;5046297;28;20037;-52
2022/04/10 00:59:52;;;;;;;20.63;4.90;;;;;;;11.60;54.97;101655.44;5049710;28;20055;-50
2022/04/10 01:02:18;;;;;;;17.70;4.55;;;;;;;12.50;51.84;101654.59;5045459;28;20044;-49
2022/04/10 01:04:46;;;;;;;20.13;3.88;;;;;;;12.41;51.94;101656.56;5047855;28;20041;-51
2022/04/10 01:07:13;;;;;;;11.30;3.63;;;;;;;12.14;52.73;101658.91;5069208;28;20059;-54
2022/04/10 01:09:43;;;;;;;25.98;4.07;;;;;;;11.86;53.30;101656.84;5068619;28;20089;-51
2022/04/10 01:12:10;;;;;;;14.25;3.90;;;;;;;12.48;51.53;101654.81;5045187;28;20040;-49
2022/04/10 01:14:38;;;;;;;13.13;3.40;;;;;;;12.40;51.89;101649.53;5046459;28;20028;-49
2022/04/10 01:17:24;;;;;;;18.95;3.60;;;;;;;12.37;51.93;101641.88;5045706;28;20048;-52
2022/04/10 01:19:52;;;;;;;10.20;2.67;;;;;;;12.31;52.17;101653.34;5049926;28;20060;-49
2022/04/10 01:22:32;;;;;;;;;;;;;;;11.95;53.08;101646.03;5055072;28;20514;-54
2022/04/10 01:25:02;;;;;;;13.52;3.58;;;;;;;11.67;54.12;101644.84;5044790;28;19913;-50
2022/04/10 01:27:34;;;;;;;7.75;2.65;;;;;;;11.86;54.50;101650.66;5056604;28;20117;-52
2022/04/10 01:30:01;;;;;;;12.55;3.00;;;;;;;11.80;55.16;101654.06;5066518;28;20029;-55
2022/04/10 01:32:27;;;;;;;14.70;3.47;;;;;;;11.96;54.30;101663.78;5050954;28;20033;-49
2022/04/10 01:34:55;;;;;;;14.73;4.07;;;;;;;11.87;55.00;101665.72;5066925;28;20850;-53
2022/04/10 01:37:21;;;;;;;8.75;3.33;;;;;;;11.82;55.85;101663.59;5066264;28;20093;-50
2022/04/10 01:39:47;;;;;;;18.38;3.53;;;;;;;11.91;55.25;101659.00;5046378;28;20044;-50
2022/04/10 01:42:13;;;;;;;10.17;2.90;;;;;;;11.95;55.98;101667.47;5045863;28;20030;-50
2022/04/10 01:44:40;;;;;;;7.20;2.33;;;;;;;11.97;56.35;101676.16;5038412;28;20026;-55
2022/04/10 01:47:06;;;;;;;12.35;3.55;;;;;;;12.10;56.16;101665.66;5025864;28;20132;-57
2022/04/10 01:49:32;;;;;;;11.07;3.33;;;;;;;11.75;57.58;101681.41;5026079;28;20034;-55
2022/04/10 01:51:57;;;;;;;8.57;2.87;;;;;;;11.76;58.14;101677.72;5032874;28;20042;-54
2022/04/10 01:54:23;;;;;;;11.40;3.13;;;;;;;11.62;59.46;101680.19;5027960;28;20033;-55
2022/04/10 01:56:48;;;;;;;12.30;4.15;;;;;;;11.50;60.94;101681.63;5027262;28;20037;-54
2022/04/10 01:59:14;;;;;;;11.45;3.05;;;;;;;11.87;59.04;101676.44;5027307;28;20276;-53
2022/04/10 02:01:40;;;;;;;11.70;3.80;;;;;;;12.03;57.88;101678.16;5028328;28;20041;-53
2022/04/10 02:04:06;;;;;;;11.53;3.47;;;;;;;11.64;59.80;101681.84;5021828;28;20067;-52
2022/04/10 02:06:34;;;;;;;16.27;2.88;;;;;;;11.79;59.73;101682.72;5026416;28;20061;-52
2022/04/10 02:08:59;;;;;;;11.40;3.22;;;;;;;12.17;57.55;101693.41;5049416;28;20057;-54
2022/04/10 02:11:26;;;;;;;10.85;2.97;;;;;;;12.16;57.18;101686.38;5030582;28;20052;-54
2022/04/10 02:13:57;;;;;;;10.10;3.53;;;;;;;11.67;59.47;101687.69;5023658;28;20021;-54
2022/04/10 02:16:23;;;;;;;12.52;3.65;;;;;;;11.57;61.59;101690.63;5033758;28;20049;-54
2022/04/10 02:18:49;;;;;;;17.63;4.32;;;;;;;11.72;60.62;101695.16;5023856;28;20079;-53
2022/04/10 02:21:15;;;;;;;9.83;3.20;;;;;;;11.80;60.86;101697.78;5031069;28;20037;-50
2022/04/10 02:23:42;;;;;;;7.38;3.17;;;;;;;11.71;60.37;101691.69;5031653;28;20053;-49
2022/04/10 02:26:12;;;;;;;9.77;3.17;;;;;;;11.77;59.65;101688.25;5043032;28;20032;-53
2022/04/10 02:28:39;;;;;;;13.27;4.18;;;;;;;12.15;58.69;101697.28;5030454;28;20029;-50
2022/04/10 02:31:05;;;;;;;15.10;4.05;;;;;;;12.03;59.13;101691.56;5041181;28;20042;-52
2022/04/10 02:33:33;;;;;;;16.98;4.82;;;;;;;12.22;58.61;101694.69;5030664;28;20037;-53
2022/04/10 02:36:01;;;;;;;14.70;5.03;;;;;;;11.97;59.62;101698.44;5023943;28;20037;-51
2022/04/10 02:38:28;;;;;;;10.30;3.83;;;;;;;12.09;58.61;101690.81;5018125;28;20041;-54
2022/04/10 02:40:53;;;;;;;9.40;3.35;;;;;;;12.27;57.95;101692.31;5023377;28;20033;-52
2022/04/10 02:43:19;;;;;;;7.47;3.30;;;;;;;12.13;57.76;101692.09;5032421;28;20033;-51
2022/04/10 02:45:48;;;;;;;9.82;3.00;;;;;;;12.28;57.04;101696.66;5049211;28;20040;-55
2022/04/10 02:48:13;;;;;;;12.82;3.08;;;;;;;11.99;58.72;101690.22;5049348;28;20096;-52
2022/04/10 02:50:40;;;;;;;9.02;3.00;;;;;;;11.90;58.95;101684.94;5038244;28;20037;-53
2022/04/10 02:53:07;;;;;;;8.68;2.72;;;;;;;11.75;60.82;101701.00;5049615;28;20048;-55
2022/04/10 02:55:34;;;;;;;11.68;3.10;;;;;;;11.55;61.20;101695.34;5045841;28;20052;-52
2022/04/10 02:58:00;;;;;;;10.40;3.70;;;;;;;11.62;61.37;101704.31;5051285;28;20593;-53
2022/04/10 03:00:26;;;;;;;13.20;3.53;;;;;;;11.79;60.91;101701.50;5036134;28;20029;-51
2022/04/10 03:02:52;;;;;;;11.47;3.63;;;;;;;11.81;59.65;101701.28;5055465;28;20071;-52
2022/04/10 03:05:18;;;;;;;14.02;3.45;;;;;;;11.54;61.60;101704.38;5050559;28;20100;-51
2022/04/10 03:07:44;;;;;;;16.55;3.50;;;;;;;11.63;62.21;101699.75;5046284;28;20048;-52
2022/04/10 03:10:10;;;;;;;8.47;2.13;;;;;;;11.80;61.09;101713.03;5048331;28;20032;-54
2022/04/10 03:12:37;;;;;;;16.95;3.65;;;;;;;11.75;60.76;101710.88;5039619;28;20032;-50
2022/04/10 03:15:04;;;;;;;13.40;3.80;;;;;;;11.68;61.62;101710.78;5059846;28;20037;-51
2022/04/10 03:17:30;;;;;;;8.55;3.22;;;;;;;11.28;64.88;101707.44;5063881;28;20032;-55
2022/04/10 03:19:57;;;;;;;24.48;5.10;;;;;;;11.35;65.04;101716.41;5041060;28;20025;-52
2022/04/10 03:22:23;;;;;;;16.67;5.32;;;;;;;11.49;64.23;101714.78;5042392;28;20025;-50
2022/04/10 03:24:49;;;;;;;11.80;5.97;;;;;;;11.59;62.94;101715.41;5047751;28;20060;-50
2022/04/10 03:27:15;;;;;;;19.05;7.50;;;;;;;11.73;61.51;101718.28;5051749;28;20033;-52
2022/04/10 03:29:41;;;;;;;16.35;9.45;;;;;;;11.41;63.94;101712.19;5054232;28;20033;-52
2022/04/10 03:32:08;;;;;;;22.38;10.60;;;;;;;11.18;67.19;101715.69;5057600;28;20043;-51
2022/04/10 03:34:35;;;;;;;20.17;10.43;;;;;;;11.26;65.70;101717.50;5054408;28;20040;-50
2022/04/10 03:37:01;;;;;;;34.63;11.13;;;;;;;11.37;66.04;101718.91;5042625;28;20036;-50
2022/04/10 03:39:27;;;;;;;25.20;11.80;;;;;;;11.77;63.94;101716.91;5054054;28;20563;-51
2022/04/10 03:41:53;;;;;;;23.35;9.55;;;;;;;12.15;60.53;101710.69;5042026;28;20033;-48
2022/04/10 03:44:19;;;;;;;25.70;10.30;;;;;;;11.99;61.22;101717.00;5039066;28;20037;-51
2022/04/10 03:46:45;;;;;;;35.45;11.52;;;;;;;11.98;60.35;101726.06;5053158;28;20069;-50
2022/04/10 03:49:11;;;;;;;33.35;11.82;;;;;;;11.77;62.84;101724.97;5052966;28;20037;-49
2022/04/10 03:51:36;;;;;;;31.33;11.33;;;;;;;11.35;64.54;101724.44;5029231;28;20039;-51
2022/04/10 03:54:03;;;;;;;28.48;11.30;;;;;;;11.37;64.45;101724.28;5008432;28;20266;-54
2022/04/10 03:56:29;;;;;;;24.60;9.32;;;;;;;11.51;63.61;101722.66;5048072;28;20033;-54
2022/04/10 03:58:56;;;;;;;22.73;9.35;;;;;;;11.68;62.46;101726.03;5032896;28;20067;-55
2022/04/10 04:01:22;;;;;;;28.27;9.15;;;;;;;11.70;62.41;101730.22;5032937;28;20030;-54
2022/04/10 04:03:49;;;;;;;24.73;9.98;;;;;;;11.73;61.75;101732.50;5019281;28;20040;-53
2022/04/10 04:06:15;;;;;;;25.52;9.65;;;;;;;11.83;61.08;101736.78;5030912;28;20033;-55
2022/04/10 04:08:41;;;;;;;31.53;9.60;;;;;;;11.58;61.91;101732.47;5056474;28;20041;-50
2022/04/10 04:11:07;;;;;;;25.33;9.07;;;;;;;11.60;63.26;101733.13;5050394;28;20045;-54
2022/04/10 04:13:43;;;;;;;;;;;;;;;11.82;61.04;101743.16;5033206;28;20037;-54
2022/04/10 04:16:09;;;;;;;37.25;12.13;;;;;;;11.80;60.72;101734.47;5022780;28;19937;-53
2022/04/10 04:18:35;;;;;;;26.25;9.80;;;;;;;11.96;60.27;101741.50;5031992;28;20045;-51
2022/04/10 04:21:02;;;;;;;23.33;8.00;;;;;;;12.05;59.41;101743.16;5032908;28;20041;-52
2022/04/10 04:23:30;;;;;;;22.88;6.85;;;;;;;12.17;58.50;101741.66;5039289;28;20041;-53
2022/04/10 04:25:57;;;;;;;26.38;8.30;;;;;;;12.05;58.90;101743.97;5038642;28;20037;-51
2022/04/10 04:28:23;;;;;;;24.60;8.07;;;;;;;11.97;59.49;101756.56;5038928;28;20043;-55
2022/04/10 04:30:49;;;;;;;26.40;7.95;;;;;;;11.91;59.68;101752.81;5030130;28;20065;-52
2022/04/10 04:33:16;;;;;;;33.25;9.43;;;;;;;11.60;61.25;101746.53;5038787;28;20060;-50
2022/04/10 04:35:42;;;;;;;28.52;9.18;;;;;;;11.35;63.16;101753.09;5024892;28;20034;-54
2022/04/10 04:38:08;;;;;;;22.05;6.65;;;;;;;11.53;61.75;101753.59;5031490;28;20035;-52
2022/04/10 04:40:33;;;;;;;15.73;4.80;;;;;;;11.60;61.58;101748.34;5039236;28;20087;-54
2022/04/10 04:42:58;;;;;;;11.23;4.53;;;;;;;11.73;60.87;101753.09;5037488;28;20042;-52
2022/04/10 04:45:28;;;;;;;13.52;4.25;;;;;;;11.84;60.11;101750.00;5041161;28;20065;-51
2022/04/10 04:48:06;;;;;;;15.98;4.63;;;;;;;11.69;60.51;101765.19;5043002;28;20022;-52
2022/04/10 04:50:33;;;;;;;12.68;3.60;;;;;;;11.39;63.22;101754.38;5062683;28;20028;-50
2022/04/10 04:52:59;;;;;;;9.35;3.00;;;;;;;11.47;62.07;101757.00;5047641;28;20500;-53
2022/04/10 04:55:25;;;;;;;10.90;3.70;;;;;;;11.69;61.22;101763.38;5051060;28;20047;-53
2022/04/10 04:57:51;;;;;;;6.00;2.97;;;;;;;11.44;61.71;101768.06;5051585;28;20037;-52
2022/04/10 05:00:19;;;;;;;7.80;3.43;;;;;;;11.72;61.32;101775.56;5032584;28;20058;-54
2022/04/10 05:02:50;;;;;;;14.90;3.95;;;;;;;11.87;60.07;101767.56;5036198;28;20036;-50
2022/04/10 05:05:15;;;;;;;13.47;3.87;;;;;;;11.82;60.41;101770.81;5053872;28;20496;-54
2022/04/10 05:07:40;;;;;;;8.47;3.67;;;;;;;11.26;63.21;101771.03;5051461;28;20033;-49
2022/04/10 05:10:07;;;;;;;11.80;3.63;;;;;;;11.47;62.70;101775.75;5036341;28;20283;-53
2022/04/10 05:12:35;;;;;;;11.88;3.72;;;;;;;11.52;62.82;101778.72;5037830;28;20030;-51
2022/04/10 05:15:07;;;;;;;9.68;3.20;;;;;;;11.45;63.24;101767.91;5033142;28;20030;-51
2022/04/10 05:17:34;;;;;;;42.75;5.70;;;;;;;11.48;63.05;101778.25;5028984;28;20030;-50
2022/04/10 05:20:01;;;;;;;10.20;3.42;;;;;;;11.46;63.17;101774.09;5038138;28;20025;-53
2022/04/10 05:22:28;;;;;;;16.58;4.22;;;;;;;11.70;61.93;101778.44;5043235;28;20098;-50
2022/04/10 05:24:59;;;;;;;10.45;3.83;;;;;;;11.97;60.28;101783.38;5042594;28;20599;-53
2022/04/10 05:27:25;;;;;;;20.00;7.03;;;;;;;11.72;61.50;101781.75;5051707;28;20037;-55
2022/04/10 05:29:51;;;;;;;26.30;8.23;;;;;;;11.15;64.50;101783.00;5046248;28;20045;-53
2022/04/10 05:32:17;;;;;;;19.77;4.47;;;;;;;11.23;65.84;101798.19;5075061;28;20411;-50
2022/04/10 05:34:43;;;;;;;9.23;3.65;;;;;;;11.66;63.14;101798.56;5044366;28;20033;-51
2022/04/10 05:37:10;;;;;;;12.82;3.58;;;;;;;11.47;63.69;101798.03;5050317;28;20029;-52
2022/04/10 05:39:43;;;;;;;11.05;3.80;;;;;;;11.76;62.83;101803.66;5050618;28;20033;-52
2022/04/10 05:42:09;;;;;;;13.07;3.28;;;;;;;11.81;61.75;101805.81;5031285;28;20033;-55
2022/04/10 05:44:36;;;;;;;13.43;4.32;;;;;;;12.15;59.97;101801.88;5046822;28;20079;-53
2022/04/10 05:47:02;;;;;;;17.23;5.53;;;;;;;12.39;58.79;101808.81;5049831;28;20037;-52
2022/04/10 05:49:28;;;;;;;20.30;6.82;;;;;;;12.32;58.92;101813.25;5046187;28;20055;-54
2022/04/10 05:51:53;;;;;;;23.50;7.60;;;;;;;11.98;61.08;101811.84;5048187;28;20033;-48
2022/04/10 05:54:20;;;;;;;23.27;7.07;;;;;;;12.32;59.76;101819.44;5041993;28;20040;-51
2022/04/10 05:56:49;;;;;;;30.48;9.80;;;;;;;12.51;58.88;101827.16;5039339;28;20026;-50
2022/04/10 05:59:16;;;;;;;29.67;9.07;;;;;;;11.88;61.80;101830.91;5037357;28;20049;-52
2022/04/10 06:01:43;;;;;;;30.73;11.20;;;;;;;11.86;63.40;101828.38;5044824;28;20278;-54
2022/04/10 06:04:10;;;;;;;26.17;8.40;;;;;;;12.14;61.65;101827.03;5039210;28;20029;-52
2022/04/10 06:06:36;;;;;;;33.47;10.30;;;;;;;12.31;61.12;101838.44;5037887;28;20313;-54
2022/04/10 06:09:09;;;;;;;23.35;8.77;;;;;;;12.73;58.72;101839.66;5047923;28;20105;-55
2022/04/10 06:11:35;;;;;;;27.20;7.47;;;;;;;12.57;59.61;101845.19;5056710;28;20036;-53
2022/04/10 06:14:01;;;;;;;11.35;3.58;;;;;;;12.71;58.29;101847.06;5041292;28;20039;-55
2022/04/10 06:16:29;;;;;;;7.07;3.05;;;;;;;12.77;57.12;101845.47;5041335;28;20029;-51
2022/04/10 06:18:56;;;;;;;8.52;2.67;;;;;;;13.15;56.06;101852.59;5041421;28;20095;-50
2022/04/10 06:21:23;;;;;;;13.23;2.60;;;;;;;12.90;55.91;101844.81;5027455;28;20034;-50
2022/04/10 06:23:48;;;;;;;16.05;3.58;;;;;;;12.93;56.57;101846.31;5053191;28;20048;-51
2022/04/10 06:26:28;;;;;;;13.82;2.92;;;;;;;12.85;56.73;101850.78;5037681;28;20033;-51
2022/04/10 06:28:54;;;;;;;12.77;2.87;;;;;;;12.71;57.48;101860.50;5038954;28;20080;-53
2022/04/10 06:31:35;;;;;;;12.38;2.63;;;;;;;13.27;55.51;101867.19;5044868;28;20266;-55
2022/04/10 06:34:02;;;;;;;11.63;2.90;;;;;;;12.79;57.05;101867.59;5042414;28;20048;-52
2022/04/10 06:36:28;;;;;;;5.18;2.78;;;;;;;12.69;56.98;101867.91;5043756;28;20055;-50
2022/04/10 06:38:54;;;;;;;9.25;2.50;;;;;;;12.95;55.69;101869.28;5048324;28;20025;-51
2022/04/10 06:41:28;;;;;;;13.82;3.17;;;;;;;12.75;56.03;101871.69;5038826;28;20033;-51
2022/04/10 06:43:55;;;;;;;13.50;2.95;;;;;;;13.33;55.19;101869.13;5038439;28;20117;-50
2022/04/10 06:46:38;;;;;;;7.82;2.78;;;;;;;13.52;54.53;101871.44;5044980;28;20037;-48
2022/04/10 06:49:12;;;;;;;10.90;2.78;;;;;;;13.18;54.30;101871.84;5037171;28;20025;-51
2022/04/10 06:51:41;;;;;;;15.45;3.40;;;;;;;13.78;53.29;101870.88;5040398;28;20039;-53
2022/04/10 06:54:07;;;;;;;9.90;3.00;;;;;;;13.99;52.51;101878.13;5053218;28;20025;-49
2022/04/10 06:56:34;;;;;;;12.18;3.65;;;;;;;14.17;51.57;101901.88;5039944;28;20025;-50
2022/04/10 06:59:00;;;;;;;10.48;2.92;;;;;;;13.52;52.79;101909.88;5046389;28;20063;-49
2022/04/10 07:01:26;;;;;;;8.35;3.03;;;;;;;13.55;52.54;101914.88;5041097;28;20033;-50
2022/04/10 07:03:51;;;;;;;13.60;2.80;;;;;;;13.76;52.23;101915.94;5042438;28;20044;-52
2022/04/10 07:06:23;;;;;;;8.27;2.75;;;;;;;13.94;51.85;101922.75;5037196;28;20148;-54
2022/04/10 07:08:48;;;;;;;12.83;2.93;;;;;;;14.03;51.40;101932.34;5039723;28;20045;-51
2022/04/10 07:11:17;;;;;;;14.55;3.42;;;;;;;13.75;51.97;101935.78;5040606;28;20036;-50
2022/04/10 07:13:42;;;;;;;13.55;3.13;;;;;;;14.39;50.83;101942.22;5039605;28;20029;-51
2022/04/10 07:16:09;;;;;;;9.47;3.07;;;;;;;14.83;49.47;101942.16;5032223;28;20035;-48
2022/04/10 07:18:34;;;;;;;8.80;2.67;;;;;;;14.76;49.76;101956.41;5052103;28;20261;-50
2022/04/10 07:21:06;;;;;;;12.23;2.17;;;;;;;15.22;49.40;101951.50;5047208;28;20037;-51
2022/04/10 07:23:43;;;;;;;7.38;2.45;;;;;;;15.56;48.48;101951.66;5046357;28;20529;-51
2022/04/10 07:26:20;;;;;;;6.90;2.67;;;;;;;15.52;48.23;101962.03;5048930;28;20039;-51
2022/04/10 07:28:52;;;;;;;8.30;1.98;;;;;;;15.06;49.74;101958.03;5038807;28;20029;-51
2022/04/10 07:31:19;;;;;;;7.00;2.50;;;;;;;15.52;48.15;101956.63;5029340;28;20068;-50
2022/04/10 07:33:45;;;;;;;9.90;2.47;;;;;;;15.95;47.42;101952.03;5049845;28;20085;-52
2022/04/10 07:36:20;;;;;;;9.65;2.95;;;;;;;15.49;48.69;101957.84;5041489;28;20021;-53
2022/04/10 07:38:46;;;;;;;6.78;2.22;;;;;;;15.99;48.53;101964.88;5049656;28;20108;-55
2022/04/10 07:41:18;;;;;;;8.65;1.88;;;;;;;15.10;51.51;101950.41;5043336;28;20033;-51
2022/04/10 07:43:48;;;;;;;7.63;2.17;;;;;;;15.64;51.66;101940.69;5043268;28;20069;-53
2022/04/10 07:49:03;;;;;;;7.43;2.25;;;;;;;16.38;49.90;101953.53;5026576;28;20033;-51
2022/04/10 07:51:34;;;;;;;5.18;1.95;;;;;;;16.56;49.36;101950.19;5021784;28;20104;-51
2022/04/10 07:54:11;;;;;;;7.97;2.45;;;;;;;16.76;48.68;101958.28;5023209;28;20025;-55
2022/04/10 07:56:37;;;;;;;3.95;1.50;;;;;;;16.45;49.25;101959.75;5027792;28;20037;-50
2022/04/10 07:59:06;;;;;;;6.57;1.67;;;;;;;17.14;47.82;101964.91;5022902;28;20041;-53
2022/04/10 08:01:36;;;;;;;6.57;1.73;;;;;;;17.09;47.54;101965.53;5028890;28;20041;-50
2022/04/10 08:04:06;;;;;;;5.82;1.55;;;;;;;16.97;48.17;101973.41;5019801;28;20026;-53
2022/04/10 08:06:51;;;;;;;7.15;1.55;;;;;;;17.30;46.72;101975.25;5035051;28;20048;-55
2022/04/10 08:09:16;;;;;;;4.82;1.40;;;;;;;17.47;46.24;101977.47;5040901;28;20037;-52
2022/04/10 08:11:42;;;;;;;8.37;1.63;;;;;;;17.47;46.45;101977.47;5045642;28;20057;-50
2022/04/10 08:14:07;;;;;;;5.82;1.60;;;;;;;17.09;46.52;101986.34;5052898;28;20041;-50
2022/04/10 08:16:33;;;;;;;4.57;1.57;;;;;;;17.06;46.45;101988.38;5045741;28;20041;-53
2022/04/10 08:18:58;;;;;;;5.97;0.98;;;;;;;16.91;46.05;101985.91;5039873;28;20348;-52
2022/04/10 08:21:24;;;;;;;3.97;1.23;;;;;;;17.52;45.90;101983.06;5033542;28;20072;-52
2022/04/10 08:23:49;;;;;;;5.63;2.20;;;;;;;17.15;45.46;101985.47;5039327;28;20065;-49
2022/04/10 08:26:15;;;;;;;4.77;1.83;;;;;;;17.06;45.64;101982.97;5039520;28;20038;-50
2022/04/10 08:28:40;;;;;;;6.35;1.50;;;;;;;16.99;45.47;101987.56;5046036;28;20037;-54
2022/04/10 08:31:06;;;;;;;7.07;1.07;;;;;;;17.59;44.82;101981.19;5033152;28;20048;-52
2022/04/10 08:33:32;;;;;;;6.85;1.50;;;;;;;17.09;44.96;101992.56;5039370;28;20087;-52
2022/04/10 08:35:57;;;;;;;3.90;1.33;;;;;;;17.19;45.46;101992.13;5043971;28;20037;-55
2022/04/10 08:38:23;;;;;;;9.83;1.47;;;;;;;16.83;45.10;101994.22;5035724;28;20042;-53
2022/04/10 08:40:53;;;;;;;10.37;1.97;;;;;;;16.89;44.56;101981.75;5026166;28;20113;-53
2022/04/10 08:43:19;;;;;;;5.50;1.73;;;;;;;17.34;44.92;101989.16;5031378;28;20037;-56
2022/04/10 08:45:45;;;;;;;10.32;2.40;;;;;;;17.30;44.85;101993.34;5049005;28;20026;-52
2022/04/10 08:48:11;;;;;;;6.72;1.45;;;;;;;17.07;44.42;101991.94;5054002;28;20044;-55
2022/04/10 08:50:37;;;;;;;;;;;;;;;17.99;43.39;101995.53;5048731;28;20040;-51
2022/04/10 08:53:03;;;;;;;6.27;1.63;;;;;;;17.74;44.27;101991.72;5049555;28;19913;-55
2022/04/10 08:55:29;;;;;;;12.38;1.85;;;;;;;18.18;43.34;102000.03;5052394;28;20025;-55
2022/04/10 08:57:55;;;;;;;5.28;1.67;;;;;;;17.75;42.85;101989.81;5057219;28;20051;-53
2022/04/10 09:00:22;;;;;;;12.67;2.70;;;;;;;18.45;42.53;101999.88;5057635;28;20041;-50
2022/04/10 09:02:50;;;;;;;4.17;1.50;;;;;;;18.84;41.79;101998.91;5050294;28;20034;-53
2022/04/10 09:05:19;;;;;;;8.37;1.53;;;;;;;18.68;39.96;101998.41;5052293;28;20274;-54
2022/04/10 09:08:10;;;;;;;11.73;1.60;;;;;;;19.78;39.43;101995.16;5049708;28;20270;-54
2022/04/10 09:11:02;;;;;;;6.27;1.70;;;;;;;20.57;38.49;102002.38;5053590;28;20270;-54
2022/04/10 09:13:34;;;;;;;3.97;1.73;;;;;;;20.25;38.38;102001.84;5048654;28;20255;-52
2022/04/10 09:16:14;;;;;;;6.70;2.13;;;;;;;20.82;37.91;102008.69;5049655;28;20270;-55
2022/04/10 09:19:14;;;;;;;3.90;1.47;;;;;;;20.76;36.63;102014.00;5055044;28;20290;-54
2022/04/10 09:21:43;;;;;;;3.77;1.20;;;;;;;21.18;35.59;102012.22;5038692;28;20321;-53
2022/04/10 09:24:13;;;;;;;7.67;1.70;;;;;;;20.76;37.21;102011.28;5055366;28;20288;-57
2022/04/10 09:26:50;;;;;;;5.97;2.00;;;;;;;20.67;36.88;102022.72;5050288;28;20356;-55
2022/04/10 09:29:20;;;;;;;9.18;1.80;;;;;;;21.11;35.48;102025.13;5055025;28;20278;-52
2022/04/10 09:31:47;;;;;;;6.90;1.57;;;;;;;22.42;33.68;102024.69;5035119;28;20053;-54
2022/04/10 09:34:20;;;;;;;10.40;2.33;;;;;;;22.01;33.84;102024.78;5058649;28;20290;-56
2022/04/10 09:36:48;;;;;;;9.17;1.73;;;;;;;23.42;33.14;102020.47;5055909;28;20037;-54
2022/04/10 09:39:30;;;;;;;4.27;1.50;;;;;;;22.19;34.17;102016.41;5042448;28;20355;-51
2022/04/10 09:42:10;;;;;;;6.70;1.80;;;;;;;22.44;32.78;102017.91;5049413;28;20037;-49
2022/04/10 09:44:40;;;;;;;5.10;1.80;;;;;;;23.92;30.53;102018.59;5048258;28;20303;-52
2022/04/10 09:47:08;;;;;;;6.13;1.50;;;;;;;23.61;30.51;102023.69;5045734;28;20041;-52
2022/04/10 09:49:41;;;;;;;9.93;2.00;;;;;;;26.00;28.07;102027.00;5046305;28;20037;-50
2022/04/10 09:52:11;;;;;;;6.77;1.67;;;;;;;25.61;28.92;102013.75;5051758;28;20033;-55
2022/04/10 09:54:42;;;;;;;6.50;1.80;;;;;;;26.59;27.93;102021.28;5046065;28;20091;-54
2022/04/10 09:57:11;;;;;;;5.77;1.50;;;;;;;26.43;26.73;102020.50;5051365;28;20033;-54
2022/04/10 09:59:43;;;;;;;3.10;1.20;;;;;;;26.64;27.15;102021.28;5052153;28;20045;-51
2022/04/10 10:02:09;;;;;;;5.40;1.63;;;;;;;26.67;25.81;102020.72;5047234;28;20044;-53
2022/04/10 10:04:37;;;;;;;4.80;1.13;;;;;;;24.93;26.97;102023.56;5046948;28;20033;-52
2022/04/10 10:07:04;;;;;;;5.03;1.10;;;;;;;24.30;29.17;102015.97;5052279;28;20037;-55
2022/04/10 10:09:32;;;;;;;6.87;1.40;;;;;;;23.72;27.82;102024.63;5048155;28;20034;-53
2022/04/10 10:12:00;;;;;;;5.80;2.33;;;;;;;23.94;28.53;102023.78;5047905;28;20061;-53
2022/04/10 10:14:29;;;;;;;5.80;1.70;;;;;;;25.20;27.28;102025.34;5046062;28;20033;-52
2022/04/10 10:16:57;;;;;;;4.73;1.27;;;;;;;26.71;27.78;102027.28;5050776;28;20088;-53
2022/04/10 10:19:23;;;;;;;6.40;1.50;;;;;;;26.56;27.73;102022.66;5046560;28;20081;-53
2022/04/10 10:21:50;;;;;;;7.63;1.67;;;;;;;28.62;23.71;102019.22;5045202;28;20094;-54
2022/04/10 10:24:18;;;;;;;6.97;1.98;;;;;;;27.55;26.83;102022.41;5018915;28;20041;-53
2022/04/10 10:27:18;;;;;;;3.83;1.30;;;;;;;26.44;26.66;102025.69;5046161;28;20101;-51
2022/04/10 10:30:11;;;;;;;4.93;1.30;;;;;;;24.38;28.18;102018.19;5011452;28;20041;-49
2022/04/10 10:32:46;;;;;;;5.90;1.47;;;;;;;23.61;29.59;102018.22;5034860;28;20045;-50
2022/04/10 10:35:25;;;;;;;9.57;1.50;;;;;;;23.43;28.72;102027.56;5043455;28;20041;-51
2022/04/10 10:37:52;;;;;;;5.80;1.70;;;;;;;24.52;28.34;102015.84;5054168;28;20512;-54
2022/04/10 10:40:19;;;;;;;5.77;1.50;;;;;;;26.69;27.12;102018.53;5047379;28;20039;-53
2022/04/10 10:42:46;;;;;;;4.93;1.00;;;;;;;28.38;24.23;102033.72;5036683;28;20093;-55
2022/04/10 10:45:31;;;;;;;6.80;1.40;;;;;;;28.30;23.15;102028.81;5047631;28;20046;-55
2022/04/10 10:48:23;;;;;;;3.43;1.20;;;;;;;31.08;21.06;102030.81;5050068;28;20053;-54
2022/04/10 10:50:53;;;;;;;7.23;1.00;;;;;;;31.61;19.80;102029.44;5026418;28;20054;-52
2022/04/10 10:53:44;;;;;;;6.47;1.40;;;;;;;29.85;21.68;102026.28;5054837;28;20030;-55
2022/04/10 10:56:21;;;;;;;7.47;1.33;;;;;;;27.18;23.26;102028.06;5045112;28;20044;-53
2022/04/10 10:58:48;;;;;;;6.68;1.60;;;;;;;26.57;24.46;102023.50;5047747;28;20101;-54
2022/04/10 11:01:19;;;;;;;6.10;1.40;;;;;;;24.48;27.20;102018.31;5052332;28;20029;-52
2022/04/10 11:04:04;;;;;;;5.97;2.27;;;;;;;26.64;26.86;102018.53;5051897;28;20101;-54
2022/04/10 11:06:50;;;;;;;11.53;2.00;;;;;;;29.36;24.75;102028.31;5047624;28;20025;-55
2022/04/10 11:09:28;;;;;;;3.73;1.87;;;;;;;30.53;23.85;102026.84;5047658;28;20052;-54
2022/04/10 11:11:55;;;;;;;;;;;;;;;32.43;19.81;102048.00;5041790;28;20293;-56
2022/04/10 11:14:41;;;;;;;6.50;1.70;;;;;;;32.33;19.66;102037.22;5053520;28;19917;-55
2022/04/10 11:17:15;;;;;;;3.77;1.17;;;;;;;32.01;20.12;102028.00;5050882;28;20045;-53
2022/04/10 11:19:44;;;;;;;5.70;1.37;;;;;;;29.99;22.63;102026.38;5049327;28;20034;-51
2022/04/10 11:22:12;;;;;;;3.97;1.50;;;;;;;31.55;20.70;102027.91;5045586;28;20212;-56
2022/04/10 11:24:38;;;;;;;5.40;1.60;;;;;;;33.71;18.53;102027.25;5047766;28;20120;-55
2022/04/10 11:27:05;;;;;;;;;;;;;;;33.25;17.89;102030.28;5037986;28;20029;-52
2022/04/10 11:29:31;;;;;;;8.52;1.38;;;;;;;34.21;17.49;102031.47;5047546;28;19917;-54
2022/04/10 11:32:04;;;;;;;7.20;1.50;;;;;;;33.09;17.31;102020.78;5046847;28;20048;-56